Time;durP1;ratioP1;P1;durP2;ratioP2;P2;SDS_P1;SDS_P2;PMS_P1;PMS_P2;Temp;Humidity;BMP_temperature;BMP_pressure;BME280_temperature;BME280_humidity;BME280_pressure;Samples;Min_cycle;Max_cycle;Signal;HPM_P1;HPM_P2
2023/09/18 00:00:51;;;;;;;12.23;11.13;;;19.00;99.90;;;;;;5035258;28;20437;-77
2023/09/18 00:03:20;;;;;;;15.43;10.70;;;19.00;99.90;;;;;;5034593;28;20407;-77
2023/09/18 00:05:49;;;;;;;11.67;10.37;;;19.00;99.90;;;;;;5033746;28;20414;-77
2023/09/18 00:08:15;;;;;;;13.63;10.50;;;19.00;99.90;;;;;;5034062;28;20965;-76
2023/09/18 00:10:41;;;;;;;11.53;10.30;;;19.00;99.90;;;;;;5034107;28;20430;-76
2023/09/18 00:13:07;;;;;;;13.43;12.07;;;19.00;99.90;;;;;;5032998;28;20842;-76
2023/09/18 00:15:33;;;;;;;13.87;11.20;;;19.00;99.90;;;;;;5034861;28;20438;-76
2023/09/18 00:17:59;;;;;;;13.60;11.10;;;19.00;99.90;;;;;;5033573;28;20224;-76
2023/09/18 00:20:27;;;;;;;11.90;10.80;;;18.90;99.90;;;;;;5032783;28;20225;-77
2023/09/18 00:22:56;;;;;;;12.57;10.37;;;18.90;99.90;;;;;;5034257;28;20222;-77
2023/09/18 00:25:22;;;;;;;13.53;11.27;;;18.90;99.90;;;;;;5033729;28;20923;-77
2023/09/18 00:27:48;;;;;;;13.03;11.70;;;18.90;99.90;;;;;;5033902;28;20468;-76
2023/09/18 00:30:14;;;;;;;12.63;11.27;;;18.90;99.90;;;;;;5032492;28;20930;-76
2023/09/18 00:32:40;;;;;;;13.00;11.70;;;18.90;99.90;;;;;;5036212;28;20446;-76
2023/09/18 00:35:06;;;;;;;13.70;11.20;;;18.90;99.90;;;;;;5034044;28;20210;-77
2023/09/18 00:37:32;;;;;;;19.20;11.07;;;18.80;99.90;;;;;;5032981;28;20183;-77
2023/09/18 00:39:57;;;;;;;17.10;10.73;;;18.90;99.90;;;;;;5033375;28;20794;-76
2023/09/18 00:42:24;;;;;;;14.53;11.20;;;18.80;99.90;;;;;;5033882;28;20171;-77
2023/09/18 00:44:52;;;;;;;12.07;10.97;;;18.80;99.90;;;;;;5033278;28;20202;-76
2023/09/18 00:47:19;;;;;;;10.70;9.63;;;18.80;99.90;;;;;;5032514;28;20818;-77
2023/09/18 00:49:48;;;;;;;11.90;10.73;;;18.80;99.90;;;;;;5033757;28;20398;-77
2023/09/18 00:52:16;;;;;;;12.47;11.33;;;18.80;99.90;;;;;;5033557;28;20414;-77
2023/09/18 00:54:43;;;;;;;12.90;10.97;;;18.80;99.90;;;;;;5032474;28;20457;-77
2023/09/18 00:57:10;;;;;;;11.23;9.97;;;18.80;99.90;;;;;;5032359;28;20462;-76
2023/09/18 00:59:36;;;;;;;13.50;11.10;;;18.80;99.90;;;;;;5047811;28;20441;-77
2023/09/18 01:02:03;;;;;;;12.40;11.20;;;18.80;99.90;;;;;;5036737;28;20950;-77
2023/09/18 01:04:30;;;;;;;11.97;9.73;;;18.80;99.90;;;;;;5032175;28;20426;-77
2023/09/18 01:06:57;;;;;;;12.30;10.07;;;18.80;99.90;;;;;;5032409;28;20440;-76
2023/09/18 01:09:24;;;;;;;12.33;10.93;;;18.80;99.90;;;;;;5033402;28;20950;-76
2023/09/18 01:12:10;;;;;;;18.03;10.10;;;18.80;99.90;;;;;;5033007;28;20501;-76
2023/09/18 01:14:50;;;;;;;11.60;10.50;;;18.80;99.90;;;;;;5053036;28;20463;-77
2023/09/18 01:17:16;;;;;;;12.23;10.73;;;18.80;99.90;;;;;;5032506;28;20465;-77
2023/09/18 01:19:46;;;;;;;11.83;10.60;;;18.80;99.90;;;;;;5033279;28;20927;-76
2023/09/18 01:22:19;;;;;;;17.10;11.73;;;18.70;99.90;;;;;;5033108;28;20414;-76
2023/09/18 01:24:50;;;;;;;11.60;10.40;;;18.70;99.90;;;;;;5032753;28;20605;-77
2023/09/18 01:27:17;;;;;;;12.50;11.20;;;18.70;99.90;;;;;;5031157;28;20456;-77
2023/09/18 01:29:47;;;;;;;11.37;10.20;;;18.70;99.90;;;;;;5033193;28;20981;-77
2023/09/18 01:32:13;;;;;;;11.03;9.93;;;18.70;99.90;;;;;;5032439;28;20480;-77
2023/09/18 01:34:48;;;;;;;15.40;12.23;;;18.70;99.90;;;;;;5032913;28;20445;-76
2023/09/18 01:37:20;;;;;;;12.33;11.13;;;18.70;99.90;;;;;;5032090;28;20422;-77
2023/09/18 01:39:49;;;;;;;11.43;10.33;;;18.70;99.90;;;;;;5033079;28;20398;-76
2023/09/18 01:42:15;;;;;;;13.83;10.90;;;18.70;99.90;;;;;;5032605;28;20426;-76
2023/09/18 01:44:41;;;;;;;12.00;10.80;;;18.60;99.90;;;;;;5032827;28;20778;-76
2023/09/18 01:47:09;;;;;;;12.47;11.17;;;18.60;99.90;;;;;;5047690;28;20472;-76
2023/09/18 01:49:36;;;;;;;12.27;11.07;;;18.60;99.90;;;;;;5046268;28;20172;-77
2023/09/18 01:52:04;;;;;;;13.93;10.87;;;18.60;99.90;;;;;;5032629;28;20412;-77
2023/09/18 01:54:30;;;;;;;12.87;11.57;;;18.70;99.90;;;;;;5032922;28;20442;-77
2023/09/18 01:56:56;;;;;;;10.90;9.80;;;18.60;99.90;;;;;;5031370;28;20842;-76
2023/09/18 01:59:23;;;;;;;13.97;10.40;;;18.60;99.90;;;;;;5032779;28;20403;-76
2023/09/18 02:01:49;;;;;;;11.47;10.37;;;18.60;99.90;;;;;;5032587;28;20241;-77
2023/09/18 02:04:15;;;;;;;14.00;11.23;;;18.50;99.90;;;;;;5032797;28;20456;-76
2023/09/18 02:06:41;;;;;;;12.40;11.10;;;18.50;99.90;;;;;;5033055;28;20811;-77
2023/09/18 02:09:10;;;;;;;11.30;10.30;;;18.50;99.90;;;;;;5035968;28;20558;-77
2023/09/18 02:11:40;;;;;;;11.87;10.60;;;18.50;99.90;;;;;;5036171;28;20188;-77
2023/09/18 02:14:06;;;;;;;14.70;11.53;;;18.50;99.90;;;;;;5036608;28;20457;-77
2023/09/18 02:16:37;;;;;;;12.83;11.53;;;18.60;99.90;;;;;;5036111;28;20444;-77
2023/09/18 02:19:04;;;;;;;12.00;10.90;;;18.60;99.90;;;;;;5036585;28;20824;-76
2023/09/18 02:21:31;;;;;;;12.00;10.80;;;18.60;99.90;;;;;;5036132;28;20939;-76
2023/09/18 02:23:57;;;;;;;12.20;11.10;;;18.50;99.90;;;;;;5036455;28;20449;-76
2023/09/18 02:26:24;;;;;;;12.00;10.80;;;18.50;99.90;;;;;;5034584;28;20440;-76
2023/09/18 02:28:53;;;;;;;14.73;11.07;;;18.50;99.90;;;;;;5036183;28;20406;-76
2023/09/18 02:31:19;;;;;;;11.97;10.73;;;18.50;99.90;;;;;;5038213;28;20549;-77
2023/09/18 02:33:46;;;;;;;14.17;11.07;;;18.50;99.90;;;;;;5050753;28;21037;-76
2023/09/18 02:36:12;;;;;;;13.27;11.17;;;18.60;99.90;;;;;;5055350;28;20166;-76
2023/09/18 02:38:38;;;;;;;10.67;9.67;;;18.50;99.90;;;;;;5056012;28;20554;-77
2023/09/18 02:41:03;;;;;;;11.53;10.43;;;18.50;99.90;;;;;;5054930;28;20429;-76
2023/09/18 02:43:29;;;;;;;10.67;9.63;;;18.50;99.90;;;;;;5047549;28;20180;-76
2023/09/18 02:45:55;;;;;;;11.00;9.97;;;18.50;99.90;;;;;;5036569;28;20187;-77
2023/09/18 02:48:20;;;;;;;10.60;9.60;;;18.50;99.90;;;;;;5055251;28;20667;-77
2023/09/18 02:50:46;;;;;;;11.87;10.53;;;18.50;99.90;;;;;;5055947;28;20174;-77
2023/09/18 02:53:20;;;;;;;10.70;9.80;;;18.50;99.90;;;;;;5055731;28;20216;-76
2023/09/18 02:55:48;;;;;;;11.40;10.40;;;18.50;99.90;;;;;;5055071;28;20163;-76
2023/09/18 02:58:14;;;;;;;10.40;9.50;;;18.50;99.90;;;;;;5035486;28;20457;-77
2023/09/18 03:00:44;;;;;;;11.33;10.13;;;18.50;99.90;;;;;;5039508;28;20425;-76
2023/09/18 03:03:10;;;;;;;11.63;10.43;;;18.50;99.90;;;;;;5055500;28;20212;-76
2023/09/18 03:05:36;;;;;;;11.70;10.70;;;18.50;99.90;;;;;;5054669;28;20585;-77
2023/09/18 03:08:03;;;;;;;11.83;10.50;;;18.50;99.90;;;;;;5055575;28;20490;-78
2023/09/18 03:10:37;;;;;;;10.77;9.90;;;18.50;99.90;;;;;;5043541;28;20434;-77
2023/09/18 03:13:03;;;;;;;12.20;10.90;;;18.50;99.90;;;;;;5052239;28;20437;-76
2023/09/18 03:15:30;;;;;;;10.87;9.97;;;18.50;99.90;;;;;;5051984;28;20430;-76
2023/09/18 03:17:56;;;;;;;11.27;10.23;;;18.50;99.90;;;;;;5033419;28;20442;-77
2023/09/18 03:20:23;;;;;;;10.10;8.77;;;18.40;99.90;;;;;;5035441;28;20395;-77
2023/09/18 03:22:54;;;;;;;10.80;9.70;;;18.40;99.90;;;;;;5035460;28;20437;-76
2023/09/18 03:25:19;;;;;;;11.27;10.07;;;18.40;99.90;;;;;;5033827;28;20430;-76
2023/09/18 03:27:45;;;;;;;10.10;9.20;;;18.40;99.90;;;;;;5034712;28;20543;-76
2023/09/18 03:30:17;;;;;;;11.03;9.93;;;18.40;99.90;;;;;;5034971;28;20743;-76
2023/09/18 03:32:43;;;;;;;12.70;11.07;;;18.50;99.90;;;;;;5035073;28;20262;-77
2023/09/18 03:35:17;;;;;;;13.20;9.60;;;18.40;99.90;;;;;;5034686;28;20537;-76
2023/09/18 03:37:53;;;;;;;11.90;10.70;;;18.40;99.90;;;;;;5034379;28;20187;-77
2023/09/18 03:40:20;;;;;;;9.90;8.90;;;18.40;99.90;;;;;;5035114;28;20883;-77
2023/09/18 03:42:46;;;;;;;11.17;10.17;;;18.40;99.90;;;;;;5034501;28;20430;-77
2023/09/18 03:45:12;;;;;;;11.30;10.20;;;18.40;99.90;;;;;;5034451;28;20398;-76
2023/09/18 03:47:39;;;;;;;11.53;10.40;;;18.40;99.90;;;;;;5034151;28;20477;-76
2023/09/18 03:50:09;;;;;;;14.50;9.57;;;18.40;99.90;;;;;;5034918;28;20171;-77
2023/09/18 03:52:36;;;;;;;10.83;9.80;;;18.50;99.90;;;;;;5034873;28;20402;-77
2023/09/18 03:55:02;;;;;;;11.80;10.60;;;18.50;99.90;;;;;;5048061;28;20995;-78
2023/09/18 03:57:27;;;;;;;11.97;10.83;;;18.50;99.90;;;;;;5047591;28;20446;-76
2023/09/18 03:59:53;;;;;;;12.33;11.03;;;18.50;99.90;;;;;;5034598;28;20413;-77
2023/09/18 04:02:20;;;;;;;12.33;10.77;;;18.50;99.90;;;;;;5034437;28;20187;-77
2023/09/18 04:04:46;;;;;;;11.23;10.20;;;18.40;99.90;;;;;;5034593;28;20221;-77
2023/09/18 04:07:16;;;;;;;11.73;10.63;;;18.50;99.90;;;;;;5032344;28;20438;-77
2023/09/18 04:09:42;;;;;;;13.30;10.50;;;18.40;99.90;;;;;;5034079;28;20160;-77
2023/09/18 04:12:07;;;;;;;12.63;10.80;;;18.40;99.90;;;;;;5034889;28;20422;-77
2023/09/18 04:14:34;;;;;;;11.30;10.40;;;18.40;99.90;;;;;;5034316;28;20446;-77
2023/09/18 04:17:02;;;;;;;11.27;10.27;;;18.40;99.90;;;;;;5032948;28;20556;-77
2023/09/18 04:19:28;;;;;;;11.70;10.60;;;18.40;99.90;;;;;;5034069;28;20560;-76
2023/09/18 04:21:54;;;;;;;12.50;11.00;;;18.40;99.90;;;;;;5033483;28;20930;-77
2023/09/18 04:24:20;;;;;;;12.27;11.07;;;18.40;99.90;;;;;;5034225;28;20425;-76
2023/09/18 04:26:46;;;;;;;11.17;10.17;;;18.40;99.90;;;;;;5033180;28;20422;-77
2023/09/18 04:29:12;;;;;;;12.70;9.90;;;18.40;99.90;;;;;;5033402;28;20458;-76
2023/09/18 04:31:38;;;;;;;12.60;10.83;;;18.30;99.90;;;;;;5033697;28;20230;-77
2023/09/18 04:34:04;;;;;;;12.60;10.33;;;18.40;99.90;;;;;;5048600;28;20206;-77
2023/09/18 04:36:30;;;;;;;13.70;10.20;;;18.40;99.90;;;;;;5053018;28;20155;-77
2023/09/18 04:38:55;;;;;;;14.20;11.57;;;18.40;99.90;;;;;;5053962;28;20428;-77
2023/09/18 04:41:21;;;;;;;12.83;11.53;;;18.40;99.90;;;;;;5053815;28;20401;-76
2023/09/18 04:43:47;;;;;;;12.00;10.67;;;18.40;99.90;;;;;;5052775;28;20206;-78
2023/09/18 04:46:13;;;;;;;11.93;10.80;;;18.30;99.90;;;;;;5041389;28;20179;-77
2023/09/18 04:48:38;;;;;;;11.40;10.20;;;18.30;99.90;;;;;;5032683;28;20544;-76
2023/09/18 04:51:04;;;;;;;12.00;10.90;;;18.30;99.90;;;;;;5036756;28;20769;-76
2023/09/18 04:53:32;;;;;;;11.00;10.00;;;18.30;99.90;;;;;;5033378;28;20199;-77
2023/09/18 04:55:58;;;;;;;13.33;11.00;;;18.30;99.90;;;;;;5035642;28;20524;-84
2023/09/18 04:58:23;;;;;;;11.47;10.47;;;18.40;99.90;;;;;;5037401;28;20454;-76
2023/09/18 05:00:59;;;;;;;11.03;9.93;;;18.30;99.90;;;;;;5038411;28;20434;-83
2023/09/18 05:03:29;;;;;;;11.40;9.50;;;18.30;99.90;;;;;;5053343;28;20208;-76
2023/09/18 05:05:54;;;;;;;11.00;9.97;;;18.30;99.90;;;;;;5052282;28;20478;-76
2023/09/18 05:08:20;;;;;;;17.83;11.43;;;18.30;99.90;;;;;;5053159;28;20421;-76
2023/09/18 05:10:47;;;;;;;11.93;10.90;;;18.30;99.90;;;;;;5043591;28;20180;-76
2023/09/18 05:13:13;;;;;;;11.93;10.63;;;18.30;99.90;;;;;;5033169;28;20445;-77
2023/09/18 05:15:39;;;;;;;12.97;10.20;;;18.30;99.90;;;;;;5032142;28;20842;-77
2023/09/18 05:18:05;;;;;;;13.63;11.03;;;18.30;99.90;;;;;;5033375;28;20183;-76
2023/09/18 05:20:31;;;;;;;11.33;10.10;;;18.40;99.90;;;;;;5033207;28;20167;-76
2023/09/18 05:22:58;;;;;;;12.10;11.00;;;18.40;99.90;;;;;;5032996;28;20494;-77
2023/09/18 05:25:31;;;;;;;12.00;10.80;;;18.40;99.90;;;;;;5048466;28;20434;-77
2023/09/18 05:27:59;;;;;;;11.50;10.40;;;18.40;99.90;;;;;;5051959;28;20457;-77
2023/09/18 05:30:35;;;;;;;11.27;10.27;;;18.40;99.90;;;;;;5050894;28;20488;-77
2023/09/18 05:33:05;;;;;;;12.77;11.47;;;18.40;99.90;;;;;;5052874;28;20431;-77
2023/09/18 05:35:36;;;;;;;10.93;9.97;;;18.40;99.90;;;;;;5052083;28;20432;-77
2023/09/18 05:38:02;;;;;;;12.63;10.77;;;18.40;99.90;;;;;;5052836;28;20430;-77
2023/09/18 05:40:28;;;;;;;10.23;9.33;;;18.40;99.90;;;;;;5052467;28;20409;-76
2023/09/18 05:42:55;;;;;;;13.43;10.60;;;18.40;99.90;;;;;;5050435;28;20472;-77
2023/09/18 05:45:21;;;;;;;12.60;11.40;;;18.40;99.90;;;;;;5032068;28;20256;-78
2023/09/18 05:47:48;;;;;;;12.00;10.90;;;18.40;99.90;;;;;;5032780;28;20433;-77
2023/09/18 05:50:15;;;;;;;11.63;10.43;;;18.50;99.90;;;;;;5032833;28;20386;-77
2023/09/18 05:52:42;;;;;;;11.13;10.10;;;18.50;99.90;;;;;;5032790;28;20469;-77
2023/09/18 05:55:09;;;;;;;12.33;11.20;;;18.50;99.90;;;;;;5032661;28;20464;-77
2023/09/18 05:57:35;;;;;;;14.20;10.17;;;18.60;99.90;;;;;;5032034;28;20422;-77
2023/09/18 06:00:01;;;;;;;12.73;10.90;;;18.60;99.90;;;;;;5032600;28;20945;-77
2023/09/18 06:02:26;;;;;;;12.90;11.53;;;18.60;99.90;;;;;;5032865;28;20168;-77
2023/09/18 06:04:57;;;;;;;10.60;9.50;;;18.60;99.90;;;;;;5032695;28;20405;-77
2023/09/18 06:07:24;;;;;;;10.97;9.87;;;18.60;99.90;;;;;;5031890;28;20187;-76
2023/09/18 06:09:50;;;;;;;12.63;10.53;;;18.70;99.90;;;;;;5032838;28;20411;-78
2023/09/18 06:12:16;;;;;;;11.00;10.00;;;18.70;99.90;;;;;;5032782;28;20883;-77
2023/09/18 06:14:42;;;;;;;11.03;10.10;;;18.70;99.90;;;;;;5032648;28;20668;-78
2023/09/18 06:17:09;;;;;;;11.90;10.27;;;18.80;99.90;;;;;;5032027;28;20217;-78
2023/09/18 06:19:35;;;;;;;11.40;10.20;;;18.80;99.90;;;;;;5032374;28;20406;-76
2023/09/18 06:22:01;;;;;;;13.00;10.40;;;18.90;98.50;;;;;;5032694;28;20914;-79
2023/09/18 06:24:27;;;;;;;10.23;9.23;;;18.90;95.30;;;;;;5032772;28;20168;-76
2023/09/18 06:26:53;;;;;;;11.70;10.70;;;18.90;95.30;;;;;;5031807;28;20426;-78
2023/09/18 06:29:18;;;;;;;11.17;10.23;;;19.00;95.40;;;;;;5032525;28;20163;-77
2023/09/18 06:31:44;;;;;;;13.30;10.63;;;19.00;95.30;;;;;;5032695;28;20831;-78
2023/09/18 06:34:10;;;;;;;10.03;8.80;;;19.00;95.30;;;;;;5032486;28;20249;-77
2023/09/18 06:36:37;;;;;;;10.57;9.50;;;19.00;95.30;;;;;;5031763;28;20192;-78
2023/09/18 06:39:03;;;;;;;9.77;8.80;;;19.00;95.40;;;;;;5032281;28;20524;-78
2023/09/18 06:41:28;;;;;;;10.33;9.23;;;19.00;95.30;;;;;;5032494;28;20402;-78
2023/09/18 06:43:54;;;;;;;11.70;9.20;;;19.10;95.40;;;;;;5032554;28;20241;-77
2023/09/18 06:46:20;;;;;;;13.10;10.13;;;19.00;95.30;;;;;;5031815;28;20250;-78
2023/09/18 06:48:49;;;;;;;9.93;9.03;;;19.10;95.40;;;;;;5032340;28;20180;-76
2023/09/18 06:51:15;;;;;;;9.90;9.00;;;19.10;95.40;;;;;;5032395;28;20167;-78
2023/09/18 06:53:41;;;;;;;11.03;10.00;;;19.10;95.40;;;;;;5034499;28;20889;-76
2023/09/18 06:56:09;;;;;;;10.57;9.67;;;19.20;95.50;;;;;;5035339;28;20496;-76
2023/09/18 06:58:35;;;;;;;11.97;8.90;;;19.30;96.60;;;;;;5035715;28;20184;-77
2023/09/18 07:01:00;;;;;;;17.43;9.30;;;19.40;92.70;;;;;;5035850;28;20425;-78
2023/09/18 07:03:26;;;;;;;12.53;10.73;;;19.50;87.70;;;;;;5035769;28;20402;-76
2023/09/18 07:05:52;;;;;;;10.27;9.17;;;19.60;82.30;;;;;;5035283;28;20160;-77
2023/09/18 07:08:22;;;;;;;11.07;9.23;;;19.70;74.90;;;;;;5035752;28;20191;-76
2023/09/18 07:10:50;;;;;;;9.80;8.80;;;19.80;70.60;;;;;;5035742;28;20167;-77
2023/09/18 07:13:15;;;;;;;8.90;7.90;;;19.90;62.90;;;;;;5035622;28;20437;-78
2023/09/18 07:15:41;;;;;;;10.43;9.43;;;20.00;58.40;;;;;;5034565;28;20800;-78
2023/09/18 07:18:07;;;;;;;10.07;8.53;;;20.00;43.80;;;;;;5043234;28;20280;-77
2023/09/18 07:20:33;;;;;;;10.17;9.07;;;20.00;40.60;;;;;;5044659;28;20178;-76
2023/09/18 07:22:59;;;;;;;10.30;9.40;;;20.10;35.80;;;;;;5038911;28;20171;-76
2023/09/18 07:25:24;;;;;;;10.90;9.10;;;20.10;29.20;;;;;;5037530;28;20940;-77
2023/09/18 07:27:50;;;;;;;12.40;8.03;;;20.10;24.70;;;;;;5051726;28;20190;-76
2023/09/18 07:30:16;;;;;;;10.60;7.83;;;20.20;26.50;;;;;;5042500;28;20187;-76
2023/09/18 07:32:43;;;;;;;8.67;7.93;;;20.30;19.70;;;;;;5042964;28;20270;-77
2023/09/18 07:35:09;;;;;;;10.10;9.20;;;20.30;15.50;;;;;;5043356;28;20980;-77
2023/09/18 07:37:36;;;;;;;9.00;8.23;;;20.40;12.60;;;;;;5041553;28;20441;-76
2023/09/18 07:40:06;;;;;;;9.23;8.43;;;20.50;11.40;;;;;;5043178;28;20535;-76
2023/09/18 07:42:32;;;;;;;10.13;9.13;;;20.50;9.20;;;;;;5034858;28;20433;-77
2023/09/18 07:44:58;;;;;;;10.83;9.73;;;20.60;2.20;;;;;;5037799;28;20822;-76
2023/09/18 07:47:24;;;;;;;9.67;8.37;;;20.70;1.00;;;;;;5044621;28;20446;-76
2023/09/18 07:49:50;;;;;;;8.43;7.37;;;20.80;1.00;;;;;;5034790;28;20191;-77
2023/09/18 07:52:19;;;;;;;8.80;8.00;;;20.90;1.00;;;;;;5034789;28;20663;-78
2023/09/18 07:54:45;;;;;;;7.87;7.23;;;21.00;1.00;;;;;;5049331;28;20207;-77
2023/09/18 07:57:10;;;;;;;9.07;8.17;;;21.00;1.00;;;;;;5037502;28;20523;-75
2023/09/18 07:59:36;;;;;;;9.23;8.33;;;21.00;1.00;;;;;;5052830;28;20191;-76
2023/09/18 08:02:02;;;;;;;8.33;7.63;;;21.10;1.00;;;;;;5048057;28;20635;-76
2023/09/18 08:04:31;;;;;;;8.40;7.70;;;21.10;1.00;;;;;;5047214;28;20503;-76
2023/09/18 08:06:57;;;;;;;9.37;8.50;;;21.10;1.00;;;;;;5051901;28;20545;-75
2023/09/18 08:09:23;;;;;;;8.87;8.07;;;21.20;1.00;;;;;;5054576;28;20404;-78
2023/09/18 08:11:49;;;;;;;7.60;6.90;;;21.20;1.00;;;;;;5044715;28;20176;-74
2023/09/18 08:14:17;;;;;;;9.40;8.67;;;21.20;1.00;;;;;;5041878;28;20460;-74
2023/09/18 08:16:42;;;;;;;8.17;7.47;;;21.30;1.00;;;;;;5040815;28;20446;-75
2023/09/18 08:19:09;;;;;;;8.20;7.40;;;21.30;1.00;;;;;;5049692;28;20948;-76
2023/09/18 08:21:35;;;;;;;8.60;7.90;;;21.40;1.00;;;;;;5052282;28;20634;-76
2023/09/18 08:24:00;;;;;;;8.10;7.40;;;21.50;1.00;;;;;;5038946;28;20469;-77
2023/09/18 08:26:28;;;;;;;8.37;7.60;;;21.50;1.00;;;;;;5032931;28;20241;-76
2023/09/18 08:28:54;;;;;;;8.33;7.53;;;21.60;1.00;;;;;;5033974;28;20438;-75
2023/09/18 08:31:19;;;;;;;8.17;7.47;;;21.70;1.00;;;;;;5046347;28;20782;-76
2023/09/18 08:33:45;;;;;;;8.23;7.30;;;21.80;1.00;;;;;;5051621;28;20248;-78
2023/09/18 08:36:12;;;;;;;8.53;7.23;;;21.80;1.00;;;;;;5052212;28;20834;-77
2023/09/18 08:38:38;;;;;;;7.87;7.17;;;21.90;1.00;;;;;;5053941;28;20701;-75
2023/09/18 08:41:05;;;;;;;8.40;7.10;;;22.00;1.00;;;;;;5053021;28;20437;-75
2023/09/18 08:43:32;;;;;;;11.40;8.70;;;22.10;1.00;;;;;;5036735;28;20616;-74
2023/09/18 08:46:01;;;;;;;8.00;7.30;;;22.20;1.00;;;;;;5031969;28;20422;-76
2023/09/18 08:48:34;;;;;;;8.63;6.80;;;22.30;1.00;;;;;;5044032;28;20861;-76
2023/09/18 08:51:05;;;;;;;7.73;6.23;;;22.40;1.00;;;;;;5047443;28;20785;-78
2023/09/18 08:53:36;;;;;;;8.33;7.63;;;22.40;1.00;;;;;;5033318;28;20426;-74
2023/09/18 08:56:04;;;;;;;7.13;6.53;;;22.50;1.00;;;;;;5048749;28;20925;-76
2023/09/18 08:58:37;;;;;;;7.73;7.00;;;22.50;1.00;;;;;;5043964;28;20479;-75
2023/09/18 09:01:03;;;;;;;7.60;6.87;;;22.50;1.00;;;;;;5033663;28;20524;-76
2023/09/18 09:03:30;;;;;;;7.50;6.80;;;22.40;1.00;;;;;;5033176;28;20430;-76
2023/09/18 09:05:56;;;;;;;9.70;6.60;;;22.30;1.00;;;;;;5046835;28;20611;-78
2023/09/18 09:08:22;;;;;;;7.27;6.60;;;22.30;1.00;;;;;;5051790;28;20460;-76
2023/09/18 09:10:49;;;;;;;6.90;6.23;;;22.30;1.00;;;;;;5049348;28;20463;-76
2023/09/18 09:13:14;;;;;;;6.93;6.23;;;22.30;1.00;;;;;;5047212;28;20183;-76
2023/09/18 09:15:49;;;;;;;7.90;6.10;;;22.40;1.00;;;;;;5038563;28;20959;-74
2023/09/18 09:18:15;;;;;;;7.00;6.30;;;22.40;1.00;;;;;;5038186;28;20281;-76
2023/09/18 09:20:52;;;;;;;6.60;6.10;;;22.40;1.00;;;;;;5048812;28;20445;-75
2023/09/18 09:23:18;;;;;;;6.53;6.03;;;22.40;1.00;;;;;;5039268;28;20436;-73
2023/09/18 09:25:43;;;;;;;7.30;6.60;;;22.30;1.00;;;;;;5041909;28;20457;-77
2023/09/18 09:28:09;;;;;;;7.37;6.70;;;22.40;1.00;;;;;;5032085;28;20214;-77
2023/09/18 09:30:36;;;;;;;6.87;6.27;;;22.40;1.00;;;;;;5046097;28;20213;-76
2023/09/18 09:33:04;;;;;;;8.73;6.33;;;22.40;1.00;;;;;;5031466;28;20648;-75
2023/09/18 09:35:34;;;;;;;6.20;5.70;;;22.40;1.00;;;;;;5042149;28;20493;-74
2023/09/18 09:38:06;;;;;;;6.33;5.93;;;22.40;1.00;;;;;;5043163;28;20468;-75
2023/09/18 09:40:32;;;;;;;6.93;6.40;;;22.50;1.00;;;;;;5032692;28;20426;-78
2023/09/18 09:43:01;;;;;;;7.93;6.50;;;22.60;1.00;;;;;;5033122;28;20401;-77
2023/09/18 09:45:38;;;;;;;6.73;6.07;;;22.60;1.00;;;;;;5033231;28;20599;-74
2023/09/18 09:48:08;;;;;;;11.90;5.80;;;22.60;1.00;;;;;;5052819;28;20502;-75
2023/09/18 09:50:46;;;;;;;5.57;5.17;;;22.70;1.00;;;;;;5052840;28;20492;-76
2023/09/18 09:53:13;;;;;;;6.33;5.83;;;22.70;1.00;;;;;;5042075;28;20472;-76
2023/09/18 09:55:38;;;;;;;6.80;6.20;;;22.80;1.00;;;;;;5032129;28;20823;-75
2023/09/18 09:58:06;;;;;;;6.30;5.80;;;22.90;1.00;;;;;;5050653;28;20457;-75
2023/09/18 10:00:45;;;;;;;6.20;5.70;;;23.00;1.00;;;;;;5039745;28;20228;-76
2023/09/18 10:03:18;;;;;;;6.00;5.50;;;23.10;1.00;;;;;;5052699;28;20393;-75
2023/09/18 10:05:46;;;;;;;5.97;5.47;;;23.10;1.00;;;;;;5051633;28;20409;-75
2023/09/18 10:08:22;;;;;;;5.50;5.10;;;23.10;1.00;;;;;;5052834;28;20483;-76
2023/09/18 10:10:51;;;;;;;8.20;5.00;;;23.10;1.00;;;;;;5042654;28;20436;-75
2023/09/18 10:13:23;;;;;;;6.37;5.77;;;23.20;1.00;;;;;;5032783;28;20401;-76
2023/09/18 10:15:53;;;;;;;5.97;5.57;;;23.10;1.00;;;;;;5040945;28;20426;-77
2023/09/18 10:18:58;;;;;;;6.43;5.93;;;23.20;1.00;;;;;;5052745;28;20414;-75
2023/09/18 10:21:31;;;;;;;6.80;5.70;;;23.40;1.00;;;;;;5052250;28;20429;-75
2023/09/18 10:24:23;;;;;;;7.03;6.33;;;23.50;1.00;;;;;;5047947;28;20425;-74
2023/09/18 10:26:58;;;;;;;6.10;5.50;;;23.40;1.00;;;;;;5032227;28;20441;-76
2023/09/18 10:29:25;;;;;;;6.67;4.77;;;23.50;1.00;;;;;;5035852;28;20480;-78
2023/09/18 10:31:54;;;;;;;5.97;5.07;;;23.40;1.00;;;;;;5036119;28;20922;-76
2023/09/18 10:34:22;;;;;;;6.67;5.60;;;23.50;1.00;;;;;;5036477;28;20548;-77
2023/09/18 10:36:49;;;;;;;8.00;6.37;;;23.60;1.00;;;;;;5035355;28;20414;-78
2023/09/18 10:39:19;;;;;;;6.10;5.10;;;23.60;1.00;;;;;;5035791;28;20462;-75
2023/09/18 10:41:47;;;;;;;6.63;6.03;;;23.60;1.00;;;;;;5035684;28;20421;-76
2023/09/18 10:44:16;;;;;;;5.90;5.33;;;23.50;1.00;;;;;;5036478;28;20382;-74
2023/09/18 10:46:42;;;;;;;7.63;6.07;;;23.40;1.00;;;;;;5037080;28;20492;-74
2023/09/18 10:49:08;;;;;;;8.00;5.40;;;23.40;1.00;;;;;;5036115;28;20433;-76
2023/09/18 10:51:33;;;;;;;8.53;5.73;;;23.20;1.00;;;;;;5036193;28;20643;-76
2023/09/18 10:54:00;;;;;;;6.50;5.70;;;23.20;1.00;;;;;;5036044;28;20187;-76
2023/09/18 10:56:26;;;;;;;6.97;5.70;;;23.20;1.00;;;;;;5034019;28;20182;-76
2023/09/18 10:58:59;;;;;;;7.67;6.20;;;23.20;1.00;;;;;;5053732;28;20747;-75
2023/09/18 11:01:27;;;;;;;8.87;6.10;;;23.10;1.00;;;;;;5041065;28;20513;-76
2023/09/18 11:03:59;;;;;;;10.63;6.57;;;23.10;1.00;;;;;;5055245;28;20429;-76
2023/09/18 11:06:26;;;;;;;6.17;5.60;;;23.20;1.00;;;;;;5042169;28;20452;-74
2023/09/18 11:09:01;;;;;;;6.97;6.27;;;23.30;1.00;;;;;;5035877;28;20409;-76
2023/09/18 11:11:29;;;;;;;7.93;6.13;;;23.30;1.00;;;;;;5035760;28;20433;-75
2023/09/18 11:13:56;;;;;;;8.80;5.77;;;23.40;1.00;;;;;;5035673;28;20446;-75
2023/09/18 11:16:28;;;;;;;5.60;5.10;;;23.40;1.00;;;;;;5033972;28;20522;-75
2023/09/18 11:19:00;;;;;;;10.03;6.03;;;23.40;1.00;;;;;;5034664;28;20390;-77
2023/09/18 11:21:28;;;;;;;9.93;5.90;;;23.40;1.00;;;;;;5035475;28;20406;-74
2023/09/18 11:24:10;;;;;;;6.87;6.27;;;23.40;1.00;;;;;;5035532;28;20917;-76
2023/09/18 11:26:40;;;;;;;6.93;6.20;;;23.40;1.00;;;;;;5034549;28;21388;-76
2023/09/18 11:29:09;;;;;;;5.77;4.97;;;23.50;1.00;;;;;;5035364;28;20473;-75
2023/09/18 11:32:03;;;;;;;5.30;4.80;;;23.60;1.00;;;;;;5034799;28;20430;-76
2023/09/18 11:34:32;;;;;;;6.17;5.30;;;23.70;1.00;;;;;;5035629;28;20576;-75
2023/09/18 11:36:58;;;;;;;6.63;5.90;;;23.60;1.00;;;;;;5033622;28;20457;-76
2023/09/18 11:39:40;;;;;;;6.97;5.30;;;23.70;1.00;;;;;;5034227;28;20392;-76
2023/09/18 11:42:18;;;;;;;6.53;5.60;;;23.70;1.00;;;;;;5035182;28;20432;-77
2023/09/18 11:44:47;;;;;;;7.30;6.13;;;23.80;1.00;;;;;;5035207;28;20934;-76
2023/09/18 11:47:21;;;;;;;11.83;5.80;;;23.80;1.00;;;;;;5033723;28;20481;-76
2023/09/18 11:49:54;;;;;;;6.00;5.40;;;23.90;1.00;;;;;;5034695;28;20504;-76
2023/09/18 11:52:24;;;;;;;6.70;6.00;;;23.90;1.00;;;;;;5035072;28;20407;-76
2023/09/18 11:54:51;;;;;;;10.33;6.33;;;24.10;1.00;;;;;;5034909;28;20446;-76
2023/09/18 11:57:19;;;;;;;5.80;5.20;;;24.20;1.00;;;;;;5033348;28;20415;-76
2023/09/18 11:59:50;;;;;;;6.93;6.23;;;24.20;1.00;;;;;;5034817;28;20410;-76
2023/09/18 12:02:38;;;;;;;12.07;6.33;;;24.30;1.00;;;;;;5034299;28;20437;-76
2023/09/18 12:05:18;;;;;;;9.63;6.27;;;24.10;1.00;;;;;;5034887;28;20398;-76
2023/09/18 12:07:45;;;;;;;9.13;6.53;;;23.90;1.00;;;;;;5033212;28;20418;-75
2023/09/18 12:10:13;;;;;;;6.50;5.20;;;23.70;1.00;;;;;;5034781;28;20398;-76
2023/09/18 12:12:41;;;;;;;7.47;5.93;;;23.50;1.00;;;;;;5034631;28;20485;-75
2023/09/18 12:15:10;;;;;;;8.57;6.80;;;23.40;1.00;;;;;;5033388;28;20449;-76
2023/09/18 12:17:36;;;;;;;12.03;6.57;;;23.40;1.00;;;;;;5032978;28;20454;-74
2023/09/18 12:20:04;;;;;;;7.10;5.87;;;23.40;1.00;;;;;;5033140;28;20425;-76
2023/09/18 12:22:36;;;;;;;11.43;6.60;;;23.20;1.00;;;;;;5034504;28;20160;-76
2023/09/18 12:25:10;;;;;;;8.73;6.20;;;23.10;1.00;;;;;;5034332;28;20398;-75
2023/09/18 12:27:37;;;;;;;11.43;7.13;;;23.20;1.00;;;;;;5033593;28;20552;-78
2023/09/18 12:30:07;;;;;;;9.67;7.07;;;23.40;1.00;;;;;;5035386;28;20785;-75
2023/09/18 12:32:36;;;;;;;6.50;5.87;;;23.50;1.00;;;;;;5053636;28;20433;-75
2023/09/18 12:35:03;;;;;;;6.57;5.47;;;23.60;1.00;;;;;;5053540;28;20995;-75
2023/09/18 12:37:28;;;;;;;9.97;6.57;;;23.60;1.00;;;;;;5053119;28;20418;-75
2023/09/18 12:39:54;;;;;;;14.93;6.73;;;23.70;1.00;;;;;;5054041;28;20410;-76
2023/09/18 12:42:20;;;;;;;7.50;6.87;;;23.60;1.00;;;;;;5054208;28;20254;-75
2023/09/18 12:44:50;;;;;;;13.03;5.50;;;23.40;1.00;;;;;;5053902;28;20649;-78